createdAt,value
2018-11-12T00:01:53.839Z,9.21
2018-11-12T00:04:23.638Z,9.25
2018-11-12T00:06:53.479Z,9.31
2018-11-12T00:09:24.302Z,9.33
2018-11-12T00:11:53.895Z,9.33
2018-11-12T00:14:35.749Z,9.32
2018-11-12T00:17:17.199Z,9.33
2018-11-12T00:19:47.083Z,9.34
2018-11-12T00:22:25.930Z,9.34
2018-11-12T00:27:55.900Z,9.32
2018-11-12T00:30:25.646Z,9.27
2018-11-12T00:33:01.714Z,9.31
2018-11-12T00:35:31.474Z,9.29
2018-11-12T00:38:08.760Z,9.31
2018-11-12T00:40:39.897Z,9.26
2018-11-12T00:43:19.250Z,9.32
2018-11-12T00:45:49.066Z,9.39
2018-11-12T00:48:18.937Z,9.42
2018-11-12T00:50:50.875Z,9.42
2018-11-12T00:53:21.080Z,9.47
2018-11-12T00:55:51.215Z,9.52
2018-11-12T00:58:29.789Z,9.54
2018-11-12T01:00:59.526Z,9.53
2018-11-12T01:03:29.214Z,9.51
2018-11-12T01:06:09.825Z,9.56
2018-11-12T01:08:46.902Z,9.58
2018-11-12T01:11:16.823Z,9.54
2018-11-12T01:13:46.561Z,9.57
2018-11-12T01:16:16.425Z,9.61
2018-11-12T01:18:46.175Z,9.53
2018-11-12T01:21:15.971Z,9.50
2018-11-12T01:23:54.504Z,9.52
2018-11-12T01:26:28.927Z,9.50
2018-11-12T01:29:05.871Z,9.50
2018-11-12T01:31:43.096Z,9.53
2018-11-12T01:34:14.531Z,9.52
2018-11-12T01:36:44.293Z,9.53
2018-11-12T01:39:14.207Z,9.56
2018-11-12T01:42:01.440Z,9.56
2018-11-12T01:44:38.033Z,9.56
2018-11-12T01:47:08.092Z,9.51
2018-11-12T01:49:37.747Z,9.53
2018-11-12T01:52:07.926Z,9.53
2018-11-12T01:54:37.743Z,9.51
2018-11-12T01:57:07.383Z,9.57
2018-11-12T01:59:37.111Z,9.56
2018-11-12T02:02:08.043Z,9.54
2018-11-12T02:04:37.754Z,9.52
2018-11-12T02:07:07.887Z,9.54
2018-11-12T02:09:37.574Z,9.55
2018-11-12T02:12:07.295Z,9.52
2018-11-12T02:14:37.121Z,9.46
2018-11-12T02:17:07.191Z,9.40
2018-11-12T02:19:36.908Z,9.37
2018-11-12T02:22:07.058Z,9.42
2018-11-12T02:24:41.892Z,9.45
2018-11-12T02:27:11.848Z,9.45
2018-11-12T02:29:41.599Z,9.46
2018-11-12T02:32:11.326Z,9.49
2018-11-12T02:34:41.127Z,9.44
2018-11-12T02:37:10.887Z,9.47
2018-11-12T02:39:40.614Z,9.40
2018-11-12T02:42:10.337Z,9.32
2018-11-12T02:44:40.085Z,9.26
2018-11-12T02:47:09.791Z,9.28
2018-11-12T02:49:39.691Z,9.32
2018-11-12T02:52:09.531Z,9.29
2018-11-12T02:54:39.256Z,9.27
2018-11-12T02:57:09.118Z,9.28
2018-11-12T02:59:38.815Z,9.25
2018-11-12T03:02:08.709Z,9.13
2018-11-12T03:04:38.439Z,9.09
2018-11-12T03:07:08.211Z,9.14
2018-11-12T03:09:37.817Z,9.13
2018-11-12T03:12:07.535Z,9.14
2018-11-12T03:14:37.363Z,9.19
2018-11-12T03:17:08.010Z,9.24
2018-11-12T03:19:39.720Z,9.24
2018-11-12T03:22:09.491Z,9.23
2018-11-12T03:24:39.174Z,9.24
2018-11-12T03:27:08.955Z,9.22
2018-11-12T03:29:38.741Z,9.22
2018-11-12T03:32:08.443Z,9.26
2018-11-12T03:34:38.163Z,9.25
2018-11-12T03:37:08.566Z,9.26
2018-11-12T03:39:38.321Z,9.18
2018-11-12T03:42:08.006Z,9.16
2018-11-12T03:44:37.771Z,9.21
2018-11-12T03:47:09.667Z,9.07
2018-11-12T03:49:39.278Z,8.98
2018-11-12T03:52:09.042Z,8.89
2018-11-12T03:54:38.734Z,8.93
2018-11-12T03:57:08.347Z,8.94
2018-11-12T03:59:38.008Z,8.90
2018-11-12T04:02:07.918Z,8.93
2018-11-12T04:04:37.795Z,8.98
2018-11-12T04:07:07.598Z,8.99
2018-11-12T04:09:37.367Z,9.05
2018-11-12T04:12:08.168Z,9.07
2018-11-12T04:14:38.443Z,9.00
2018-11-12T04:17:08.198Z,8.99
2018-11-12T04:19:43.759Z,8.98
2018-11-12T04:22:13.348Z,9.10
2018-11-12T04:24:43.055Z,9.12
2018-11-12T04:27:12.723Z,9.11
2018-11-12T04:29:42.417Z,9.10
2018-11-12T04:32:12.159Z,9.15
2018-11-12T04:34:41.886Z,9.14
2018-11-12T04:37:12.211Z,9.12
2018-11-12T04:39:42.667Z,8.98
2018-11-12T04:42:12.311Z,9.00
2018-11-12T04:44:42.144Z,9.04
2018-11-12T04:47:11.854Z,9.02
2018-11-12T04:49:41.499Z,9.04
2018-11-12T04:52:11.150Z,9.05
2018-11-12T04:54:40.883Z,9.08
2018-11-12T04:57:10.571Z,8.97
2018-11-12T04:59:40.283Z,9.06
2018-11-12T05:02:10.003Z,9.08
2018-11-12T05:04:39.702Z,8.96
2018-11-12T05:07:09.319Z,8.88
2018-11-12T05:09:39.094Z,8.91
2018-11-12T05:12:08.862Z,8.98
2018-11-12T05:14:38.573Z,9.02
2018-11-12T05:17:09.359Z,8.96
2018-11-12T05:19:39.127Z,8.92
2018-11-12T05:22:08.827Z,8.86
2018-11-12T05:24:38.578Z,8.79
2018-11-12T05:27:08.285Z,8.79
2018-11-12T05:29:38.425Z,8.69
2018-11-12T05:32:08.103Z,8.68
2018-11-12T05:34:37.883Z,8.71
2018-11-12T05:37:08.038Z,8.72
2018-11-12T05:39:40.443Z,8.71
2018-11-12T05:42:10.118Z,8.71
2018-11-12T05:45:03.968Z,8.77
2018-11-12T05:47:33.586Z,8.84
2018-11-12T05:50:19.805Z,8.85
2018-11-12T05:52:52.977Z,8.70
2018-11-12T05:55:24.162Z,8.75
2018-11-12T05:57:53.862Z,8.66
2018-11-12T06:00:25.361Z,8.69
2018-11-12T06:02:55.114Z,8.69
2018-11-12T06:05:32.193Z,8.69
2018-11-12T06:08:01.869Z,8.68
2018-11-12T06:10:32.739Z,8.69
2018-11-12T06:13:02.461Z,8.74
2018-11-12T06:15:32.144Z,8.76
2018-11-12T06:18:01.871Z,8.70
2018-11-12T06:20:32.705Z,8.71
2018-11-12T06:23:02.326Z,8.63
2018-11-12T06:25:48.815Z,8.59
2018-11-12T06:28:18.519Z,8.60
2018-11-12T06:30:48.302Z,8.61
2018-11-12T06:33:17.912Z,8.57
2018-11-12T06:35:53.427Z,8.58
2018-11-12T06:38:23.127Z,8.53
2018-11-12T06:40:52.896Z,8.59
2018-11-12T06:43:23.307Z,8.58
2018-11-12T06:45:53.011Z,8.63
2018-11-12T06:48:22.679Z,8.56
2018-11-12T06:50:52.336Z,8.57
2018-11-12T06:53:21.969Z,8.62
2018-11-12T06:55:51.603Z,8.67
2018-11-12T06:58:21.378Z,8.64
2018-11-12T07:00:51.160Z,8.69
2018-11-12T07:03:20.869Z,8.60
2018-11-12T07:05:50.984Z,8.61
2018-11-12T07:08:21.058Z,8.60
2018-11-12T07:10:50.800Z,8.62
2018-11-12T07:13:48.869Z,8.71
2018-11-12T07:16:18.634Z,8.72
2018-11-12T07:18:48.283Z,8.78
2018-11-12T07:21:18.030Z,8.65
2018-11-12T07:23:47.611Z,8.83
2018-11-12T07:26:17.311Z,8.74
2018-11-12T07:28:46.999Z,8.82
2018-11-12T07:31:16.733Z,8.80
2018-11-12T07:33:46.412Z,8.70
2018-11-12T07:36:39.111Z,8.88
2018-11-12T07:39:10.986Z,8.95
2018-11-12T07:41:40.723Z,8.90
2018-11-12T07:44:10.458Z,8.86
2018-11-12T07:46:40.139Z,8.84
2018-11-12T07:49:09.831Z,9.01
2018-11-12T07:51:39.514Z,8.92
2018-11-12T07:54:09.240Z,8.88
2018-11-12T07:56:38.917Z,8.98
2018-11-12T07:59:08.643Z,8.93
2018-11-12T08:01:38.359Z,9.05
2018-11-12T08:04:08.221Z,8.91
2018-11-12T08:06:38.411Z,8.88
2018-11-12T08:09:10.849Z,8.88
2018-11-12T08:11:40.894Z,9.00
2018-11-12T08:14:10.728Z,9.10
2018-11-12T08:16:40.315Z,9.00
2018-11-12T08:19:10.321Z,8.88
2018-11-12T08:21:40.007Z,8.68
2018-11-12T08:24:09.696Z,8.77
2018-11-12T08:26:39.406Z,8.72
2018-11-12T08:29:09.117Z,8.88
2018-11-12T08:31:38.810Z,8.98
2018-11-12T08:34:08.557Z,8.85
2018-11-12T08:36:38.370Z,8.96
2018-11-12T08:39:08.738Z,9.00
2018-11-12T08:41:38.415Z,9.06
2018-11-12T08:44:08.294Z,9.06
2018-11-12T08:46:38.010Z,8.77
2018-11-12T08:49:08.114Z,8.96
2018-11-12T08:51:37.775Z,9.04
2018-11-12T08:54:07.934Z,8.86
2018-11-12T08:56:37.639Z,8.85
2018-11-12T08:59:07.451Z,8.73
2018-11-12T09:01:37.161Z,8.89
2018-11-12T09:04:06.947Z,8.57
2018-11-12T09:06:37.232Z,8.76
2018-11-12T09:09:11.771Z,8.73
2018-11-12T09:11:42.017Z,8.78
2018-11-12T09:14:11.703Z,8.60
2018-11-12T09:16:51.034Z,8.64
2018-11-12T09:19:20.851Z,8.68
2018-11-12T09:21:50.558Z,9.19
2018-11-12T09:24:20.346Z,9.64
2018-11-12T09:26:49.827Z,9.78
2018-11-12T09:29:19.583Z,9.70
2018-11-12T09:31:49.231Z,9.84
2018-11-12T09:34:19.351Z,10.35
2018-11-12T09:36:49.180Z,10.32
2018-11-12T09:39:18.745Z,10.49
2018-11-12T09:41:48.454Z,10.85
2018-11-12T09:44:18.167Z,10.77
2018-11-12T09:46:47.855Z,10.88
2018-11-12T09:49:17.573Z,10.88
2018-11-12T09:51:47.317Z,11.01
2018-11-12T09:54:17.154Z,10.74
2018-11-12T09:56:46.630Z,10.51
2018-11-12T09:59:16.254Z,10.84
2018-11-12T10:01:46.529Z,10.95
2018-11-12T10:04:15.927Z,11.46
2018-11-12T10:06:47.267Z,11.89
2018-11-12T10:09:17.647Z,11.41
2018-11-12T10:11:47.156Z,11.30
2018-11-12T10:14:17.630Z,11.38
2018-11-12T10:16:47.264Z,11.64
2018-11-12T10:19:14.611Z,12.42
2018-11-12T10:21:44.356Z,12.16
2018-11-12T10:24:14.030Z,12.71
2018-11-12T10:26:43.642Z,12.97
2018-11-12T10:29:13.375Z,13.21
2018-11-12T10:31:49.043Z,13.12
2018-11-12T10:34:18.650Z,13.89
2018-11-12T10:36:48.317Z,13.95
2018-11-12T10:39:18.023Z,13.27
2018-11-12T10:41:47.768Z,13.26
2018-11-12T10:44:17.435Z,12.94
2018-11-12T10:46:47.215Z,13.09
2018-11-12T10:49:16.863Z,13.04
2018-11-12T10:51:47.015Z,12.96
2018-11-12T10:54:16.848Z,13.42
2018-11-12T10:56:46.406Z,13.35
2018-11-12T10:59:16.219Z,12.86
2018-11-12T11:01:51.210Z,12.88
2018-11-12T11:04:22.563Z,12.68
2018-11-12T11:06:52.274Z,12.85
2018-11-12T11:09:21.932Z,13.72
2018-11-12T11:11:51.630Z,13.47
2018-11-12T11:14:21.360Z,13.70
2018-11-12T11:16:51.091Z,14.17
2018-11-12T11:19:20.728Z,14.01
2018-11-12T11:21:50.848Z,14.29
2018-11-12T11:24:21.186Z,14.57
2018-11-12T11:26:51.163Z,15.28
2018-11-12T11:29:20.962Z,15.66
2018-11-12T11:31:50.831Z,17.02
2018-11-12T11:34:20.901Z,17.10
2018-11-12T11:36:50.667Z,17.63
2018-11-12T11:39:20.438Z,17.62
2018-11-12T11:41:50.181Z,17.98
2018-11-12T11:44:19.866Z,17.57
2018-11-12T11:46:49.489Z,17.01
2018-11-12T11:49:19.496Z,17.79
2018-11-12T11:52:19.960Z,18.09
2018-11-12T11:54:49.830Z,17.15
2018-11-12T11:57:21.509Z,17.49
2018-11-12T11:59:51.103Z,18.04
2018-11-12T12:02:20.969Z,18.08
2018-11-12T12:04:51.192Z,17.82
2018-11-12T12:07:21.085Z,17.73
2018-11-12T12:09:50.736Z,17.57
2018-11-12T12:12:20.505Z,17.87
2018-11-12T12:14:50.302Z,17.27
2018-11-12T12:17:19.967Z,17.50
2018-11-12T12:19:51.729Z,19.09
2018-11-12T12:22:21.497Z,18.41
2018-11-12T12:24:51.190Z,17.57
2018-11-12T12:27:21.000Z,17.34
2018-11-12T12:29:50.706Z,17.24
2018-11-12T12:32:20.534Z,16.96
2018-11-12T12:34:50.941Z,17.36
2018-11-12T12:37:20.579Z,17.02
2018-11-12T12:39:50.950Z,17.47
2018-11-12T12:42:20.724Z,17.91
2018-11-12T12:44:50.543Z,17.79
2018-11-12T12:47:20.158Z,17.43
2018-11-12T12:49:49.823Z,17.78
2018-11-12T12:52:19.610Z,17.08
2018-11-12T12:54:49.254Z,17.18
2018-11-12T12:57:18.870Z,17.62
2018-11-12T12:59:49.295Z,19.28
2018-11-12T13:02:19.045Z,19.77
2018-11-12T13:04:48.851Z,19.32
2018-11-12T13:07:18.514Z,19.48
2018-11-12T13:09:48.398Z,21.35
2018-11-12T13:12:18.465Z,20.58
2018-11-12T13:14:48.392Z,20.84
2018-11-12T13:17:18.178Z,20.00
2018-11-12T13:19:47.872Z,20.71
2018-11-12T13:22:17.502Z,19.48
2018-11-12T13:24:47.234Z,18.48
2018-11-12T13:27:17.215Z,17.53
2018-11-12T13:30:06.380Z,17.02
2018-11-12T13:32:36.055Z,16.98
2018-11-12T13:35:06.761Z,17.15
2018-11-12T13:37:36.674Z,16.84
2018-11-12T13:40:10.360Z,16.23
2018-11-12T13:42:40.522Z,16.00
2018-11-12T13:45:10.847Z,15.71
2018-11-12T13:47:40.860Z,16.01
2018-11-12T13:50:20.474Z,16.49
2018-11-12T13:52:51.434Z,16.77
2018-11-12T13:55:22.244Z,16.99
2018-11-12T13:57:52.229Z,16.74
2018-11-12T14:00:24.591Z,17.50
2018-11-12T14:02:54.894Z,18.12
2018-11-12T14:05:25.366Z,17.64
2018-11-12T14:07:55.211Z,17.49
2018-11-12T14:10:26.525Z,16.97
2018-11-12T14:12:57.197Z,16.44
2018-11-12T14:15:27.398Z,16.77
2018-11-12T14:17:58.028Z,16.20
2018-11-12T14:20:28.081Z,16.13
2018-11-12T14:22:57.696Z,15.76
2018-11-12T14:25:27.741Z,16.04
2018-11-12T14:27:58.502Z,16.65
2018-11-12T14:30:29.819Z,16.84
2018-11-12T14:33:00.921Z,16.76
2018-11-12T14:35:30.848Z,16.75
2018-11-12T14:38:00.579Z,16.75
2018-11-12T14:40:40.671Z,17.10
2018-11-12T14:43:10.362Z,17.20
2018-11-12T14:45:40.233Z,16.73
2018-11-12T14:48:10.032Z,17.49
2018-11-12T14:50:42.058Z,17.61
2018-11-12T14:53:11.991Z,17.77
2018-11-12T14:55:41.798Z,17.38
2018-11-12T14:58:11.811Z,17.22
2018-11-12T15:00:41.526Z,16.80
2018-11-12T15:03:27.529Z,16.45
2018-11-12T15:05:57.228Z,16.73
2018-11-12T15:08:27.034Z,16.57
2018-11-12T15:10:57.451Z,16.56
2018-11-12T15:13:27.214Z,16.53
2018-11-12T15:16:03.371Z,16.39
2018-11-12T15:18:33.106Z,16.15
2018-11-12T15:21:02.896Z,15.48
2018-11-12T15:23:43.186Z,15.22
2018-11-12T15:26:12.916Z,14.78
2018-11-12T15:28:42.618Z,14.40
2018-11-12T15:31:18.003Z,14.20
2018-11-12T15:33:48.902Z,13.82
2018-11-12T15:36:18.915Z,13.60
2018-11-12T15:38:49.179Z,13.37
2018-11-12T15:41:18.901Z,13.13
2018-11-12T15:43:48.568Z,12.98
2018-11-12T15:46:25.427Z,12.89
2018-11-12T15:48:56.302Z,12.87
2018-11-12T15:51:26.008Z,12.63
2018-11-12T15:53:55.892Z,12.44
2018-11-12T15:56:25.925Z,12.23
2018-11-12T15:58:56.095Z,12.04
2018-11-12T16:01:26.158Z,11.85
2018-11-12T16:03:56.505Z,11.70
2018-11-12T16:06:25.848Z,11.48
2018-11-12T16:09:01.148Z,11.37
2018-11-12T16:11:31.502Z,11.22
2018-11-12T16:14:00.834Z,11.10
2018-11-12T16:16:32.328Z,10.98
2018-11-12T16:19:01.868Z,10.89
2018-11-12T16:21:31.167Z,10.79
2018-11-12T16:24:00.481Z,10.73
2018-11-12T16:26:29.885Z,10.73
2018-11-12T16:29:00.099Z,10.66
2018-11-12T16:31:29.673Z,10.56
2018-11-12T16:33:58.985Z,10.46
2018-11-12T16:36:28.570Z,10.46
2018-11-12T16:38:57.917Z,10.39
2018-11-12T16:41:27.571Z,10.34
2018-11-12T16:43:57.101Z,10.23
2018-11-12T16:46:26.486Z,10.14
2018-11-12T16:48:55.800Z,10.10
2018-11-12T16:51:25.131Z,10.18
2018-11-12T16:53:54.481Z,10.22
2018-11-12T16:56:34.043Z,10.20
2018-11-12T16:59:04.075Z,10.13
2018-11-12T17:01:34.376Z,10.00
2018-11-12T17:04:04.107Z,9.86
2018-11-12T17:06:34.258Z,9.84
2018-11-12T17:09:05.093Z,9.81
2018-11-12T17:11:34.713Z,9.74
2018-11-12T17:14:04.450Z,9.82
2018-11-12T17:16:34.199Z,9.80
2018-11-12T17:19:03.951Z,9.70
2018-11-12T17:24:40.434Z,9.56
2018-11-12T17:27:10.191Z,9.53
2018-11-12T17:29:39.820Z,9.40
2018-11-12T17:35:18.934Z,9.34
2018-11-12T17:37:49.022Z,9.25
2018-11-12T17:40:23.945Z,9.26
2018-11-12T17:42:55.208Z,9.30
2018-11-12T17:45:26.339Z,9.28
2018-11-12T17:47:57.268Z,9.23
2018-11-12T17:50:27.329Z,9.22
2018-11-12T17:52:57.156Z,9.14
2018-11-12T17:55:26.826Z,9.18
2018-11-12T17:57:56.514Z,9.17
2018-11-12T18:00:27.915Z,9.11
2018-11-12T18:02:57.564Z,9.00
2018-11-12T18:05:27.418Z,8.92
2018-11-12T18:07:57.262Z,8.82
2018-11-12T18:10:26.907Z,8.78
2018-11-12T18:12:56.579Z,8.77
2018-11-12T18:15:26.371Z,8.74
2018-11-12T18:18:02.425Z,8.79
2018-11-12T18:20:32.047Z,8.76
2018-11-12T18:23:08.144Z,8.71
2018-11-12T18:25:37.835Z,8.70
2018-11-12T18:28:07.753Z,8.66
2018-11-12T18:30:38.073Z,8.50
2018-11-12T18:33:08.547Z,8.42
2018-11-12T18:35:44.230Z,8.38
2018-11-12T18:38:13.992Z,8.43
2018-11-12T18:40:43.644Z,8.43
2018-11-12T18:43:13.261Z,8.45
2018-11-12T18:45:42.935Z,8.43
2018-11-12T18:48:12.639Z,8.43
2018-11-12T18:50:42.344Z,8.36
2018-11-12T18:53:12.257Z,8.34
2018-11-12T18:55:41.925Z,8.31
2018-11-12T18:58:11.633Z,8.25
2018-11-12T19:00:41.315Z,8.22
2018-11-12T19:03:11.343Z,8.27
2018-11-12T19:05:40.945Z,8.18
2018-11-12T19:08:12.689Z,8.08
2018-11-12T19:10:42.437Z,7.96
2018-11-12T19:13:12.126Z,7.82
2018-11-12T19:15:41.790Z,7.75
2018-11-12T19:18:14.986Z,7.68
2018-11-12T19:20:49.947Z,7.60
2018-11-12T19:23:19.602Z,7.67
2018-11-12T19:25:49.311Z,7.60
2018-11-12T19:28:18.978Z,7.59
2018-11-12T19:30:50.824Z,7.70
2018-11-12T19:33:21.842Z,7.74
2018-11-12T19:36:13.758Z,7.75
2018-11-12T19:38:43.449Z,7.81
2018-11-12T19:41:13.182Z,7.84
2018-11-12T19:43:43.338Z,7.88
2018-11-12T19:46:13.242Z,7.94
2018-11-12T19:48:43.086Z,7.93
2018-11-12T19:51:20.208Z,7.85
2018-11-12T19:53:50.494Z,7.81
2018-11-12T19:56:20.813Z,7.78
2018-11-12T19:58:52.311Z,7.75
2018-11-12T20:01:24.044Z,7.70
2018-11-12T20:03:54.118Z,7.69
2018-11-12T20:06:24.417Z,7.67
2018-11-12T20:09:02.458Z,7.63
2018-11-12T20:11:38.806Z,7.60
2018-11-12T20:14:12.574Z,7.60
2018-11-12T20:16:43.223Z,7.52
2018-11-12T20:19:24.656Z,7.45
2018-11-12T20:22:15.391Z,7.42
2018-11-12T20:24:45.089Z,7.45
2018-11-12T20:27:14.812Z,7.40
2018-11-12T20:29:44.590Z,7.37
2018-11-12T20:32:31.548Z,7.28
2018-11-12T20:35:01.443Z,7.19
2018-11-12T20:40:35.054Z,7.12
2018-11-12T20:43:25.643Z,7.29
2018-11-12T20:45:55.444Z,7.40
2018-11-12T20:48:25.211Z,7.48
2018-11-12T20:50:54.936Z,7.59
2018-11-12T20:53:24.563Z,7.67
2018-11-12T20:56:06.659Z,7.73
2018-11-12T20:58:37.178Z,7.79
2018-11-12T21:01:06.975Z,7.82
2018-11-12T21:06:53.316Z,7.91
2018-11-12T21:09:22.986Z,7.93
2018-11-12T21:11:52.688Z,7.95
2018-11-12T21:14:22.491Z,7.97
2018-11-12T21:16:52.315Z,7.91
2018-11-12T21:19:22.388Z,7.94
2018-11-12T21:21:52.319Z,7.98
2018-11-12T21:24:28.279Z,7.99
2018-11-12T21:26:58.848Z,7.98
2018-11-12T21:29:28.644Z,7.97
2018-11-12T21:31:58.467Z,7.89
2018-11-12T21:34:28.250Z,7.85
2018-11-12T21:36:58.074Z,7.82
2018-11-12T21:39:27.732Z,7.75
2018-11-12T21:42:00.559Z,7.73
2018-11-12T21:44:30.891Z,7.67
2018-11-12T21:47:00.632Z,7.66
2018-11-12T21:49:30.442Z,7.64
2018-11-12T21:52:00.322Z,7.64
2018-11-12T21:54:30.657Z,7.68
2018-11-12T21:57:00.576Z,7.64
2018-11-12T21:59:34.814Z,7.68
2018-11-12T22:02:04.685Z,7.73
2018-11-12T22:04:35.775Z,7.82
2018-11-12T22:07:24.374Z,7.83
2018-11-12T22:09:54.185Z,7.91
2018-11-12T22:12:23.849Z,8.00
2018-11-12T22:14:54.265Z,8.07
2018-11-12T22:17:23.954Z,8.16
2018-11-12T22:19:57.020Z,8.22
2018-11-12T22:22:26.793Z,8.28
2018-11-12T22:24:56.522Z,8.31
2018-11-12T22:27:56.520Z,8.31
2018-11-12T22:30:27.662Z,8.35
2018-11-12T22:32:58.384Z,8.43
2018-11-12T22:35:28.344Z,8.52
2018-11-12T22:38:00.226Z,8.60
2018-11-12T22:40:29.942Z,8.59
2018-11-12T22:42:59.606Z,8.64
2018-11-12T22:45:29.354Z,8.69
2018-11-12T22:47:59.102Z,8.72
2018-11-12T22:50:29.910Z,8.81
2018-11-12T22:52:59.591Z,8.90
2018-11-12T22:55:30.715Z,8.90
2018-11-12T22:58:08.043Z,8.91
2018-11-12T23:00:46.780Z,8.91
2018-11-12T23:03:22.102Z,8.93
2018-11-12T23:06:01.657Z,8.95
2018-11-12T23:08:32.564Z,8.97
2018-11-12T23:11:02.728Z,8.98
2018-11-12T23:13:33.067Z,8.99
2018-11-12T23:16:02.822Z,8.91
2018-11-12T23:18:32.746Z,8.92
2018-11-12T23:21:18.638Z,8.91
2018-11-12T23:23:48.347Z,8.78
2018-11-12T23:26:17.988Z,8.76
2018-11-12T23:28:53.055Z,8.74
2018-11-12T23:31:23.511Z,8.72
2018-11-12T23:34:00.768Z,8.72
2018-11-12T23:36:30.764Z,8.57
2018-11-12T23:39:00.509Z,8.61
2018-11-12T23:41:37.131Z,8.56
2018-11-12T23:44:10.422Z,8.61
2018-11-12T23:46:40.148Z,8.62
2018-11-12T23:49:10.355Z,8.64
2018-11-12T23:51:39.998Z,8.53
2018-11-12T23:54:09.854Z,8.47
2018-11-12T23:56:39.696Z,8.46
2018-11-12T23:59:09.571Z,8.34
